sensor_id;sensor_type;location;lat;lon;timestamp;P1;durP1;ratioP1;P2;durP2;ratioP2
9904;SDS011;4991;43.566;27.820;2022-08-21T00:01:17;21.90;;;18.40;;
9904;SDS011;4991;43.566;27.820;2022-08-21T00:03:45;19.57;;;17.40;;
9904;SDS011;4991;43.566;27.820;2022-08-21T00:06:11;18.80;;;16.83;;
9904;SDS011;4991;43.566;27.820;2022-08-21T00:08:37;19.57;;;17.47;;
9904;SDS011;4991;43.566;27.820;2022-08-21T00:11:03;26.13;;;17.33;;
9904;SDS011;4991;43.566;27.820;2022-08-21T00:13:30;20.23;;;18.33;;
9904;SDS011;4991;43.566;27.820;2022-08-21T00:15:56;19.77;;;17.93;;
9904;SDS011;4991;43.566;27.820;2022-08-21T00:18:24;20.67;;;17.13;;
9904;SDS011;4991;43.566;27.820;2022-08-21T00:20:49;21.47;;;18.20;;
9904;SDS011;4991;43.566;27.820;2022-08-21T00:23:16;21.97;;;19.80;;
9904;SDS011;4991;43.566;27.820;2022-08-21T00:25:42;21.70;;;19.43;;
9904;SDS011;4991;43.566;27.820;2022-08-21T00:28:09;28.03;;;25.13;;
9904;SDS011;4991;43.566;27.820;2022-08-21T00:30:35;26.93;;;24.17;;
9904;SDS011;4991;43.566;27.820;2022-08-21T00:33:01;24.23;;;21.67;;
9904;SDS011;4991;43.566;27.820;2022-08-21T00:35:29;24.90;;;22.33;;
9904;SDS011;4991;43.566;27.820;2022-08-21T00:37:57;22.93;;;20.70;;
9904;SDS011;4991;43.566;27.820;2022-08-21T00:40:25;22.37;;;20.27;;
9904;SDS011;4991;43.566;27.820;2022-08-21T00:42:57;21.47;;;19.47;;
9904;SDS011;4991;43.566;27.820;2022-08-21T00:45:23;20.93;;;18.90;;
9904;SDS011;4991;43.566;27.820;2022-08-21T00:47:49;25.07;;;20.40;;
9904;SDS011;4991;43.566;27.820;2022-08-21T00:50:16;32.17;;;24.60;;
9904;SDS011;4991;43.566;27.820;2022-08-21T00:52:44;23.40;;;20.07;;
9904;SDS011;4991;43.566;27.820;2022-08-21T00:55:11;28.80;;;23.03;;
9904;SDS011;4991;43.566;27.820;2022-08-21T00:57:40;25.87;;;20.03;;
9904;SDS011;4991;43.566;27.820;2022-08-21T01:00:12;23.57;;;21.03;;
9904;SDS011;4991;43.566;27.820;2022-08-21T01:02:42;23.63;;;21.13;;
9904;SDS011;4991;43.566;27.820;2022-08-21T01:05:08;23.67;;;21.33;;
9904;SDS011;4991;43.566;27.820;2022-08-21T01:07:35;22.63;;;20.30;;
9904;SDS011;4991;43.566;27.820;2022-08-21T01:10:02;22.47;;;20.13;;
9904;SDS011;4991;43.566;27.820;2022-08-21T01:12:29;21.47;;;18.83;;
9904;SDS011;4991;43.566;27.820;2022-08-21T01:14:55;27.63;;;23.67;;
9904;SDS011;4991;43.566;27.820;2022-08-21T01:17:20;31.70;;;24.43;;
9904;SDS011;4991;43.566;27.820;2022-08-21T01:19:46;25.80;;;22.10;;
9904;SDS011;4991;43.566;27.820;2022-08-21T01:22:12;28.23;;;22.67;;
9904;SDS011;4991;43.566;27.820;2022-08-21T01:24:38;24.63;;;22.13;;
9904;SDS011;4991;43.566;27.820;2022-08-21T01:27:04;23.43;;;21.00;;
9904;SDS011;4991;43.566;27.820;2022-08-21T01:29:47;24.00;;;21.10;;
9904;SDS011;4991;43.566;27.820;2022-08-21T01:32:18;26.30;;;21.43;;
9904;SDS011;4991;43.566;27.820;2022-08-21T01:34:45;21.17;;;18.80;;
9904;SDS011;4991;43.566;27.820;2022-08-21T01:37:14;19.93;;;17.73;;
9904;SDS011;4991;43.566;27.820;2022-08-21T01:39:40;20.80;;;18.67;;
9904;SDS011;4991;43.566;27.820;2022-08-21T01:42:06;24.63;;;20.00;;
9904;SDS011;4991;43.566;27.820;2022-08-21T01:44:33;25.97;;;21.83;;
9904;SDS011;4991;43.566;27.820;2022-08-21T01:47:00;28.30;;;22.40;;
9904;SDS011;4991;43.566;27.820;2022-08-21T01:49:29;47.40;;;24.87;;
9904;SDS011;4991;43.566;27.820;2022-08-21T01:51:54;39.03;;;25.27;;
9904;SDS011;4991;43.566;27.820;2022-08-21T01:54:20;58.10;;;27.47;;
9904;SDS011;4991;43.566;27.820;2022-08-21T01:56:47;52.07;;;27.33;;
9904;SDS011;4991;43.566;27.820;2022-08-21T01:59:14;66.97;;;29.60;;
9904;SDS011;4991;43.566;27.820;2022-08-21T02:01:40;50.33;;;27.50;;
9904;SDS011;4991;43.566;27.820;2022-08-21T02:04:06;47.87;;;24.93;;
9904;SDS011;4991;43.566;27.820;2022-08-21T02:06:33;43.63;;;26.40;;
9904;SDS011;4991;43.566;27.820;2022-08-21T02:09:00;36.63;;;26.93;;
9904;SDS011;4991;43.566;27.820;2022-08-21T02:11:28;41.07;;;27.50;;
9904;SDS011;4991;43.566;27.820;2022-08-21T02:13:53;32.97;;;24.73;;
9904;SDS011;4991;43.566;27.820;2022-08-21T02:16:19;35.20;;;26.43;;
9904;SDS011;4991;43.566;27.820;2022-08-21T02:18:45;30.83;;;24.67;;
9904;SDS011;4991;43.566;27.820;2022-08-21T02:21:11;31.53;;;25.27;;
9904;SDS011;4991;43.566;27.820;2022-08-21T02:23:36;30.67;;;26.10;;
9904;SDS011;4991;43.566;27.820;2022-08-21T02:26:04;34.70;;;26.27;;
9904;SDS011;4991;43.566;27.820;2022-08-21T02:28:31;38.40;;;28.13;;
9904;SDS011;4991;43.566;27.820;2022-08-21T02:30:58;39.33;;;26.83;;
9904;SDS011;4991;43.566;27.820;2022-08-21T02:33:24;48.00;;;28.37;;
9904;SDS011;4991;43.566;27.820;2022-08-21T02:35:51;53.03;;;27.17;;
9904;SDS011;4991;43.566;27.820;2022-08-21T02:38:28;47.77;;;30.37;;
9904;SDS011;4991;43.566;27.820;2022-08-21T02:40:56;52.90;;;29.67;;
9904;SDS011;4991;43.566;27.820;2022-08-21T02:43:23;49.93;;;31.23;;
9904;SDS011;4991;43.566;27.820;2022-08-21T02:45:50;50.47;;;31.27;;
9904;SDS011;4991;43.566;27.820;2022-08-21T02:48:19;58.00;;;33.77;;
9904;SDS011;4991;43.566;27.820;2022-08-21T02:50:57;53.90;;;33.93;;
9904;SDS011;4991;43.566;27.820;2022-08-21T02:53:25;50.33;;;34.73;;
9904;SDS011;4991;43.566;27.820;2022-08-21T02:55:52;46.87;;;33.70;;
9904;SDS011;4991;43.566;27.820;2022-08-21T02:58:20;50.30;;;32.70;;
9904;SDS011;4991;43.566;27.820;2022-08-21T03:00:49;45.80;;;31.73;;
9904;SDS011;4991;43.566;27.820;2022-08-21T03:03:15;53.87;;;32.53;;
9904;SDS011;4991;43.566;27.820;2022-08-21T03:05:41;52.30;;;34.17;;
9904;SDS011;4991;43.566;27.820;2022-08-21T03:08:07;49.80;;;34.30;;
9904;SDS011;4991;43.566;27.820;2022-08-21T03:10:39;54.03;;;35.57;;
9904;SDS011;4991;43.566;27.820;2022-08-21T03:13:07;51.93;;;34.97;;
9904;SDS011;4991;43.566;27.820;2022-08-21T03:15:33;48.00;;;34.70;;
9904;SDS011;4991;43.566;27.820;2022-08-21T03:18:00;50.33;;;34.40;;
9904;SDS011;4991;43.566;27.820;2022-08-21T03:20:27;48.70;;;34.23;;
9904;SDS011;4991;43.566;27.820;2022-08-21T03:22:54;44.33;;;33.43;;
9904;SDS011;4991;43.566;27.820;2022-08-21T03:25:22;49.33;;;33.70;;
9904;SDS011;4991;43.566;27.820;2022-08-21T03:27:48;45.23;;;33.50;;
9904;SDS011;4991;43.566;27.820;2022-08-21T03:30:14;52.30;;;34.93;;
9904;SDS011;4991;43.566;27.820;2022-08-21T03:32:41;55.17;;;42.10;;
9904;SDS011;4991;43.566;27.820;2022-08-21T03:35:06;47.80;;;37.83;;
9904;SDS011;4991;43.566;27.820;2022-08-21T03:37:32;50.40;;;33.57;;
9904;SDS011;4991;43.566;27.820;2022-08-21T03:39:58;46.00;;;33.57;;
9904;SDS011;4991;43.566;27.820;2022-08-21T03:42:24;42.17;;;33.30;;
9904;SDS011;4991;43.566;27.820;2022-08-21T03:44:50;46.27;;;33.33;;
9904;SDS011;4991;43.566;27.820;2022-08-21T03:47:16;48.97;;;33.80;;
9904;SDS011;4991;43.566;27.820;2022-08-21T03:49:42;44.17;;;32.93;;
9904;SDS011;4991;43.566;27.820;2022-08-21T03:52:08;42.33;;;31.60;;
9904;SDS011;4991;43.566;27.820;2022-08-21T03:54:33;40.13;;;32.30;;
9904;SDS011;4991;43.566;27.820;2022-08-21T03:56:59;39.63;;;29.83;;
9904;SDS011;4991;43.566;27.820;2022-08-21T03:59:25;45.13;;;31.87;;
9904;SDS011;4991;43.566;27.820;2022-08-21T04:01:54;50.07;;;34.00;;
9904;SDS011;4991;43.566;27.820;2022-08-21T04:04:21;82.33;;;68.33;;
9904;SDS011;4991;43.566;27.820;2022-08-21T04:06:48;149.23;;;124.20;;
9904;SDS011;4991;43.566;27.820;2022-08-21T04:09:15;46.33;;;36.67;;
9904;SDS011;4991;43.566;27.820;2022-08-21T04:11:41;44.73;;;34.63;;
9904;SDS011;4991;43.566;27.820;2022-08-21T04:14:07;44.33;;;31.77;;
9904;SDS011;4991;43.566;27.820;2022-08-21T04:16:33;44.63;;;33.77;;
9904;SDS011;4991;43.566;27.820;2022-08-21T04:18:59;44.63;;;34.10;;
9904;SDS011;4991;43.566;27.820;2022-08-21T04:21:24;50.33;;;37.70;;
9904;SDS011;4991;43.566;27.820;2022-08-21T04:23:50;51.47;;;36.80;;
9904;SDS011;4991;43.566;27.820;2022-08-21T04:26:17;52.87;;;35.77;;
9904;SDS011;4991;43.566;27.820;2022-08-21T04:28:42;53.40;;;38.10;;
9904;SDS011;4991;43.566;27.820;2022-08-21T04:31:08;56.30;;;38.13;;
9904;SDS011;4991;43.566;27.820;2022-08-21T04:33:34;56.57;;;38.97;;
9904;SDS011;4991;43.566;27.820;2022-08-21T04:36:00;54.60;;;37.80;;
9904;SDS011;4991;43.566;27.820;2022-08-21T04:38:26;57.63;;;38.10;;
9904;SDS011;4991;43.566;27.820;2022-08-21T04:40:52;59.60;;;39.10;;
9904;SDS011;4991;43.566;27.820;2022-08-21T04:43:19;59.17;;;38.23;;
9904;SDS011;4991;43.566;27.820;2022-08-21T04:45:48;55.10;;;39.87;;
9904;SDS011;4991;43.566;27.820;2022-08-21T04:48:16;49.30;;;37.23;;
9904;SDS011;4991;43.566;27.820;2022-08-21T04:50:49;53.23;;;39.70;;
9904;SDS011;4991;43.566;27.820;2022-08-21T04:53:38;50.53;;;37.47;;
9904;SDS011;4991;43.566;27.820;2022-08-21T04:56:08;56.10;;;38.77;;
9904;SDS011;4991;43.566;27.820;2022-08-21T04:58:37;51.77;;;37.20;;
9904;SDS011;4991;43.566;27.820;2022-08-21T05:01:04;59.43;;;39.70;;
9904;SDS011;4991;43.566;27.820;2022-08-21T05:03:34;58.10;;;38.17;;
9904;SDS011;4991;43.566;27.820;2022-08-21T05:06:03;51.13;;;36.03;;
9904;SDS011;4991;43.566;27.820;2022-08-21T05:08:31;49.40;;;39.03;;
9904;SDS011;4991;43.566;27.820;2022-08-21T05:10:58;40.90;;;34.27;;
9904;SDS011;4991;43.566;27.820;2022-08-21T05:13:23;39.37;;;31.17;;
9904;SDS011;4991;43.566;27.820;2022-08-21T05:15:49;36.93;;;30.80;;
9904;SDS011;4991;43.566;27.820;2022-08-21T05:18:14;34.47;;;29.57;;
9904;SDS011;4991;43.566;27.820;2022-08-21T05:20:40;30.03;;;26.73;;
9904;SDS011;4991;43.566;27.820;2022-08-21T05:23:09;26.20;;;23.50;;
9904;SDS011;4991;43.566;27.820;2022-08-21T05:25:37;29.73;;;25.48;;
9904;SDS011;4991;43.566;27.820;2022-08-21T05:28:03;26.95;;;24.08;;
9904;SDS011;4991;43.566;27.820;2022-08-21T05:30:30;25.02;;;22.33;;
9904;SDS011;4991;43.566;27.820;2022-08-21T05:32:56;26.60;;;23.75;;
9904;SDS011;4991;43.566;27.820;2022-08-21T05:35:27;29.63;;;25.23;;
9904;SDS011;4991;43.566;27.820;2022-08-21T05:37:54;31.42;;;24.45;;
9904;SDS011;4991;43.566;27.820;2022-08-21T05:40:20;30.33;;;25.47;;
9904;SDS011;4991;43.566;27.820;2022-08-21T05:42:46;35.88;;;27.20;;
9904;SDS011;4991;43.566;27.820;2022-08-21T05:45:11;35.50;;;25.67;;
9904;SDS011;4991;43.566;27.820;2022-08-21T05:47:37;36.50;;;28.73;;
9904;SDS011;4991;43.566;27.820;2022-08-21T05:50:03;33.17;;;28.00;;
9904;SDS011;4991;43.566;27.820;2022-08-21T05:52:29;31.57;;;26.73;;
9904;SDS011;4991;43.566;27.820;2022-08-21T05:54:55;33.13;;;26.70;;
9904;SDS011;4991;43.566;27.820;2022-08-21T05:57:21;32.03;;;26.23;;
9904;SDS011;4991;43.566;27.820;2022-08-21T05:59:48;33.72;;;27.85;;
9904;SDS011;4991;43.566;27.820;2022-08-21T06:02:16;30.35;;;26.30;;
9904;SDS011;4991;43.566;27.820;2022-08-21T06:04:43;30.75;;;26.08;;
9904;SDS011;4991;43.566;27.820;2022-08-21T06:07:09;29.92;;;25.60;;
9904;SDS011;4991;43.566;27.820;2022-08-21T06:09:34;30.60;;;27.15;;
9904;SDS011;4991;43.566;27.820;2022-08-21T06:12:07;32.10;;;26.10;;
9904;SDS011;4991;43.566;27.820;2022-08-21T06:14:35;28.25;;;25.17;;
9904;SDS011;4991;43.566;27.820;2022-08-21T06:17:03;30.77;;;24.58;;
9904;SDS011;4991;43.566;27.820;2022-08-21T06:19:33;25.45;;;21.23;;
9904;SDS011;4991;43.566;27.820;2022-08-21T06:22:00;23.73;;;21.05;;
9904;SDS011;4991;43.566;27.820;2022-08-21T06:24:26;24.02;;;20.05;;
9904;SDS011;4991;43.566;27.820;2022-08-21T06:26:52;20.20;;;17.30;;
9904;SDS011;4991;43.566;27.820;2022-08-21T06:29:18;25.67;;;17.98;;
9904;SDS011;4991;43.566;27.820;2022-08-21T06:31:45;23.20;;;20.52;;
9904;SDS011;4991;43.566;27.820;2022-08-21T06:34:15;20.13;;;18.02;;
9904;SDS011;4991;43.566;27.820;2022-08-21T06:36:41;25.30;;;17.60;;
9904;SDS011;4991;43.566;27.820;2022-08-21T06:39:07;21.27;;;18.95;;
9904;SDS011;4991;43.566;27.820;2022-08-21T06:41:33;19.55;;;16.65;;
9904;SDS011;4991;43.566;27.820;2022-08-21T06:43:58;20.70;;;16.65;;
9904;SDS011;4991;43.566;27.820;2022-08-21T06:46:25;19.35;;;17.27;;
9904;SDS011;4991;43.566;27.820;2022-08-21T06:48:52;17.67;;;15.80;;
9904;SDS011;4991;43.566;27.820;2022-08-21T06:51:18;18.00;;;15.98;;
9904;SDS011;4991;43.566;27.820;2022-08-21T06:53:44;16.40;;;14.80;;
9904;SDS011;4991;43.566;27.820;2022-08-21T06:56:09;15.70;;;13.60;;
9904;SDS011;4991;43.566;27.820;2022-08-21T06:58:35;15.43;;;13.93;;
9904;SDS011;4991;43.566;27.820;2022-08-21T07:01:01;16.30;;;14.45;;
9904;SDS011;4991;43.566;27.820;2022-08-21T07:05:54;16.52;;;12.30;;
9904;SDS011;4991;43.566;27.820;2022-08-21T07:08:21;15.85;;;12.15;;
9904;SDS011;4991;43.566;27.820;2022-08-21T07:10:47;23.75;;;11.35;;
9904;SDS011;4991;43.566;27.820;2022-08-21T07:13:14;17.08;;;10.15;;
9904;SDS011;4991;43.566;27.820;2022-08-21T07:15:40;16.60;;;10.65;;
9904;SDS011;4991;43.566;27.820;2022-08-21T07:18:05;16.67;;;11.40;;
9904;SDS011;4991;43.566;27.820;2022-08-21T07:20:32;14.02;;;9.98;;
9904;SDS011;4991;43.566;27.820;2022-08-21T07:22:59;9.60;;;8.65;;
9904;SDS011;4991;43.566;27.820;2022-08-21T07:25:27;11.68;;;9.05;;
9904;SDS011;4991;43.566;27.820;2022-08-21T07:27:53;10.07;;;9.07;;
9904;SDS011;4991;43.566;27.820;2022-08-21T07:30:21;9.48;;;8.50;;
9904;SDS011;4991;43.566;27.820;2022-08-21T07:32:47;10.40;;;8.50;;
9904;SDS011;4991;43.566;27.820;2022-08-21T07:35:15;11.07;;;7.18;;
9904;SDS011;4991;43.566;27.820;2022-08-21T07:37:41;9.65;;;7.05;;
9904;SDS011;4991;43.566;27.820;2022-08-21T07:40:07;9.93;;;7.07;;
9904;SDS011;4991;43.566;27.820;2022-08-21T07:42:34;9.20;;;7.72;;
9904;SDS011;4991;43.566;27.820;2022-08-21T07:45:05;9.30;;;7.68;;
9904;SDS011;4991;43.566;27.820;2022-08-21T07:47:32;9.77;;;8.18;;
9904;SDS011;4991;43.566;27.820;2022-08-21T07:49:57;7.78;;;7.00;;
9904;SDS011;4991;43.566;27.820;2022-08-21T07:52:23;12.32;;;7.35;;
9904;SDS011;4991;43.566;27.820;2022-08-21T07:54:48;9.65;;;7.22;;
9904;SDS011;4991;43.566;27.820;2022-08-21T07:57:14;10.40;;;8.05;;
9904;SDS011;4991;43.566;27.820;2022-08-21T07:59:41;9.20;;;7.38;;
9904;SDS011;4991;43.566;27.820;2022-08-21T08:02:06;9.70;;;6.85;;
9904;SDS011;4991;43.566;27.820;2022-08-21T08:04:32;13.95;;;7.78;;
9904;SDS011;4991;43.566;27.820;2022-08-21T08:06:58;16.00;;;7.80;;
9904;SDS011;4991;43.566;27.820;2022-08-21T08:09:23;7.28;;;6.57;;
9904;SDS011;4991;43.566;27.820;2022-08-21T08:11:49;9.02;;;6.68;;
9904;SDS011;4991;43.566;27.820;2022-08-21T08:14:15;9.43;;;6.55;;
9904;SDS011;4991;43.566;27.820;2022-08-21T08:16:41;14.52;;;7.28;;
9904;SDS011;4991;43.566;27.820;2022-08-21T08:19:07;9.65;;;6.75;;
9904;SDS011;4991;43.566;27.820;2022-08-21T08:21:33;8.63;;;7.07;;
9904;SDS011;4991;43.566;27.820;2022-08-21T08:23:59;11.55;;;7.15;;
9904;SDS011;4991;43.566;27.820;2022-08-21T08:26:26;17.08;;;6.65;;
9904;SDS011;4991;43.566;27.820;2022-08-21T08:28:51;14.07;;;7.30;;
9904;SDS011;4991;43.566;27.820;2022-08-21T08:31:17;8.73;;;6.78;;
9904;SDS011;4991;43.566;27.820;2022-08-21T08:33:42;15.45;;;7.20;;
9904;SDS011;4991;43.566;27.820;2022-08-21T08:36:15;9.70;;;6.68;;
9904;SDS011;4991;43.566;27.820;2022-08-21T08:38:42;12.00;;;7.38;;
9904;SDS011;4991;43.566;27.820;2022-08-21T08:43:39;12.73;;;7.10;;
9904;SDS011;4991;43.566;27.820;2022-08-21T08:46:10;17.33;;;7.00;;
9904;SDS011;4991;43.566;27.820;2022-08-21T08:51:20;13.40;;;6.90;;
9904;SDS011;4991;43.566;27.820;2022-08-21T08:54:00;8.00;;;6.95;;
9904;SDS011;4991;43.566;27.820;2022-08-21T08:56:31;13.95;;;7.22;;
9904;SDS011;4991;43.566;27.820;2022-08-21T08:59:11;17.48;;;7.25;;
9904;SDS011;4991;43.566;27.820;2022-08-21T09:01:42;8.30;;;6.90;;
9904;SDS011;4991;43.566;27.820;2022-08-21T09:04:08;8.55;;;7.72;;
9904;SDS011;4991;43.566;27.820;2022-08-21T09:06:50;10.05;;;7.68;;
9904;SDS011;4991;43.566;27.820;2022-08-21T09:20:37;12.45;;;6.88;;
9904;SDS011;4991;43.566;27.820;2022-08-21T09:26:13;11.93;;;7.93;;
9904;SDS011;4991;43.566;27.820;2022-08-21T09:28:41;7.55;;;6.85;;
9904;SDS011;4991;43.566;27.820;2022-08-21T09:31:11;13.88;;;8.18;;
9904;SDS011;4991;43.566;27.820;2022-08-21T09:33:56;11.77;;;7.90;;
9904;SDS011;4991;43.566;27.820;2022-08-21T09:36:25;11.20;;;6.85;;
9904;SDS011;4991;43.566;27.820;2022-08-21T09:38:59;10.02;;;7.07;;
9904;SDS011;4991;43.566;27.820;2022-08-21T09:41:26;12.02;;;6.93;;
9904;SDS011;4991;43.566;27.820;2022-08-21T09:43:54;7.68;;;6.90;;
9904;SDS011;4991;43.566;27.820;2022-08-21T09:46:20;12.10;;;6.65;;
9904;SDS011;4991;43.566;27.820;2022-08-21T09:48:52;10.32;;;6.90;;
9904;SDS011;4991;43.566;27.820;2022-08-21T09:51:21;11.93;;;6.90;;
9904;SDS011;4991;43.566;27.820;2022-08-21T09:53:56;11.10;;;7.47;;
9904;SDS011;4991;43.566;27.820;2022-08-21T09:56:50;9.30;;;6.57;;
9904;SDS011;4991;43.566;27.820;2022-08-21T09:59:35;7.57;;;6.15;;
9904;SDS011;4991;43.566;27.820;2022-08-21T10:02:07;7.80;;;6.72;;
9904;SDS011;4991;43.566;27.820;2022-08-21T10:04:53;8.20;;;5.15;;
9904;SDS011;4991;43.566;27.820;2022-08-21T10:07:23;7.45;;;5.55;;
9904;SDS011;4991;43.566;27.820;2022-08-21T10:10:05;12.15;;;6.20;;
9904;SDS011;4991;43.566;27.820;2022-08-21T10:12:41;5.85;;;4.95;;
9904;SDS011;4991;43.566;27.820;2022-08-21T10:18:18;9.68;;;5.60;;
9904;SDS011;4991;43.566;27.820;2022-08-21T10:21:01;9.07;;;5.82;;
9904;SDS011;4991;43.566;27.820;2022-08-21T10:23:46;8.32;;;6.15;;
9904;SDS011;4991;43.566;27.820;2022-08-21T10:29:08;11.55;;;6.20;;
9904;SDS011;4991;43.566;27.820;2022-08-21T10:34:31;6.95;;;6.25;;
9904;SDS011;4991;43.566;27.820;2022-08-21T10:37:23;8.10;;;5.97;;
9904;SDS011;4991;43.566;27.820;2022-08-21T10:42:38;9.57;;;5.85;;
9904;SDS011;4991;43.566;27.820;2022-08-21T10:48:06;9.57;;;6.00;;
9904;SDS011;4991;43.566;27.820;2022-08-21T10:50:42;7.80;;;6.40;;
9904;SDS011;4991;43.566;27.820;2022-08-21T10:58:47;7.88;;;6.60;;
9904;SDS011;4991;43.566;27.820;2022-08-21T11:02:22;9.15;;;6.90;;
9904;SDS011;4991;43.566;27.820;2022-08-21T11:10:37;9.30;;;7.28;;
9904;SDS011;4991;43.566;27.820;2022-08-21T11:13:11;8.75;;;7.03;;
9904;SDS011;4991;43.566;27.820;2022-08-21T11:15:53;8.32;;;6.80;;
9904;SDS011;4991;43.566;27.820;2022-08-21T11:18:35;17.20;;;7.30;;
9904;SDS011;4991;43.566;27.820;2022-08-21T11:29:40;11.43;;;6.88;;
9904;SDS011;4991;43.566;27.820;2022-08-21T11:43:50;9.35;;;6.65;;
9904;SDS011;4991;43.566;27.820;2022-08-21T11:46:26;7.22;;;6.40;;
9904;SDS011;4991;43.566;27.820;2022-08-21T11:54:30;12.50;;;7.93;;
9904;SDS011;4991;43.566;27.820;2022-08-21T11:59:54;12.10;;;8.00;;
9904;SDS011;4991;43.566;27.820;2022-08-21T12:02:29;12.25;;;7.85;;
9904;SDS011;4991;43.566;27.820;2022-08-21T12:05:00;12.80;;;8.60;;
9904;SDS011;4991;43.566;27.820;2022-08-21T12:10:08;9.32;;;8.43;;
9904;SDS011;4991;43.566;27.820;2022-08-21T12:12:40;8.30;;;7.45;;
9904;SDS011;4991;43.566;27.820;2022-08-21T12:17:52;10.65;;;6.70;;
9904;SDS011;4991;43.566;27.820;2022-08-21T12:23:06;7.93;;;7.13;;
9904;SDS011;4991;43.566;27.820;2022-08-21T12:28:25;12.10;;;8.43;;
9904;SDS011;4991;43.566;27.820;2022-08-21T12:30:52;9.48;;;7.95;;
9904;SDS011;4991;43.566;27.820;2022-08-21T12:36:12;9.55;;;7.57;;
9904;SDS011;4991;43.566;27.820;2022-08-21T12:38:56;8.60;;;7.40;;
9904;SDS011;4991;43.566;27.820;2022-08-21T12:41:27;8.70;;;7.82;;
9904;SDS011;4991;43.566;27.820;2022-08-21T12:46:39;10.82;;;7.63;;
9904;SDS011;4991;43.566;27.820;2022-08-21T12:49:26;8.90;;;8.05;;
9904;SDS011;4991;43.566;27.820;2022-08-21T12:52:01;14.55;;;8.65;;
9904;SDS011;4991;43.566;27.820;2022-08-21T12:54:39;10.52;;;8.48;;
9904;SDS011;4991;43.566;27.820;2022-08-21T12:57:07;10.75;;;8.45;;
9904;SDS011;4991;43.566;27.820;2022-08-21T12:59:38;12.73;;;9.35;;
9904;SDS011;4991;43.566;27.820;2022-08-21T13:02:10;10.82;;;8.75;;
9904;SDS011;4991;43.566;27.820;2022-08-21T13:04:42;13.52;;;8.70;;
9904;SDS011;4991;43.566;27.820;2022-08-21T13:07:12;12.43;;;8.80;;
9904;SDS011;4991;43.566;27.820;2022-08-21T13:09:44;9.73;;;8.23;;
9904;SDS011;4991;43.566;27.820;2022-08-21T13:12:14;9.15;;;7.90;;
9904;SDS011;4991;43.566;27.820;2022-08-21T13:14:43;16.50;;;9.02;;
9904;SDS011;4991;43.566;27.820;2022-08-21T13:17:12;19.17;;;8.80;;
9904;SDS011;4991;43.566;27.820;2022-08-21T13:19:41;13.48;;;9.05;;
9904;SDS011;4991;43.566;27.820;2022-08-21T13:22:13;19.58;;;9.73;;
9904;SDS011;4991;43.566;27.820;2022-08-21T13:24:40;7.90;;;7.20;;
9904;SDS011;4991;43.566;27.820;2022-08-21T13:27:16;10.80;;;7.45;;
9904;SDS011;4991;43.566;27.820;2022-08-21T13:29:44;12.52;;;7.65;;
9904;SDS011;4991;43.566;27.820;2022-08-21T13:32:13;10.50;;;7.65;;
9904;SDS011;4991;43.566;27.820;2022-08-21T13:34:46;11.38;;;7.72;;
9904;SDS011;4991;43.566;27.820;2022-08-21T13:37:12;9.10;;;7.57;;
9904;SDS011;4991;43.566;27.820;2022-08-21T13:39:39;10.77;;;7.43;;
9904;SDS011;4991;43.566;27.820;2022-08-21T13:42:09;11.07;;;7.03;;
9904;SDS011;4991;43.566;27.820;2022-08-21T13:44:43;8.65;;;7.35;;
9904;SDS011;4991;43.566;27.820;2022-08-21T13:47:12;12.82;;;9.32;;
9904;SDS011;4991;43.566;27.820;2022-08-21T13:49:41;26.70;;;23.85;;
9904;SDS011;4991;43.566;27.820;2022-08-21T13:52:14;9.57;;;6.82;;
9904;SDS011;4991;43.566;27.820;2022-08-21T13:54:42;14.93;;;7.60;;
9904;SDS011;4991;43.566;27.820;2022-08-21T13:57:17;13.70;;;7.70;;
9904;SDS011;4991;43.566;27.820;2022-08-21T13:59:44;8.25;;;6.93;;
9904;SDS011;4991;43.566;27.820;2022-08-21T14:02:13;11.70;;;7.50;;
9904;SDS011;4991;43.566;27.820;2022-08-21T14:07:17;11.32;;;7.40;;
9904;SDS011;4991;43.566;27.820;2022-08-21T14:09:51;12.25;;;7.38;;
9904;SDS011;4991;43.566;27.820;2022-08-21T14:12:26;9.98;;;7.35;;
9904;SDS011;4991;43.566;27.820;2022-08-21T14:14:57;13.70;;;7.60;;
9904;SDS011;4991;43.566;27.820;2022-08-21T14:17:35;11.75;;;10.55;;
9904;SDS011;4991;43.566;27.820;2022-08-21T14:20:06;10.57;;;7.07;;
9904;SDS011;4991;43.566;27.820;2022-08-21T14:25:06;9.00;;;6.88;;
9904;SDS011;4991;43.566;27.820;2022-08-21T14:27:36;9.07;;;6.72;;
9904;SDS011;4991;43.566;27.820;2022-08-21T14:33:01;8.20;;;6.57;;
9904;SDS011;4991;43.566;27.820;2022-08-21T14:35:29;16.15;;;6.93;;
9904;SDS011;4991;43.566;27.820;2022-08-21T14:37:55;14.27;;;7.75;;
9904;SDS011;4991;43.566;27.820;2022-08-21T14:40:22;7.43;;;6.47;;
9904;SDS011;4991;43.566;27.820;2022-08-21T14:42:50;9.20;;;6.35;;
9904;SDS011;4991;43.566;27.820;2022-08-21T14:45:18;9.63;;;6.85;;
9904;SDS011;4991;43.566;27.820;2022-08-21T14:47:50;9.60;;;7.20;;
9904;SDS011;4991;43.566;27.820;2022-08-21T14:50:16;9.82;;;6.53;;
9904;SDS011;4991;43.566;27.820;2022-08-21T14:52:42;6.75;;;6.05;;
9904;SDS011;4991;43.566;27.820;2022-08-21T14:55:11;8.88;;;6.40;;
9904;SDS011;4991;43.566;27.820;2022-08-21T14:57:41;11.82;;;7.00;;
9904;SDS011;4991;43.566;27.820;2022-08-21T15:00:10;8.05;;;6.43;;
9904;SDS011;4991;43.566;27.820;2022-08-21T15:02:38;11.80;;;7.10;;
9904;SDS011;4991;43.566;27.820;2022-08-21T15:05:04;10.57;;;7.18;;
9904;SDS011;4991;43.566;27.820;2022-08-21T15:07:31;16.58;;;7.30;;
9904;SDS011;4991;43.566;27.820;2022-08-21T15:09:57;9.05;;;6.80;;
9904;SDS011;4991;43.566;27.820;2022-08-21T15:12:23;8.43;;;7.55;;
9904;SDS011;4991;43.566;27.820;2022-08-21T15:14:50;10.48;;;7.13;;
9904;SDS011;4991;43.566;27.820;2022-08-21T15:17:16;8.70;;;7.07;;
9904;SDS011;4991;43.566;27.820;2022-08-21T15:19:42;15.23;;;7.78;;
9904;SDS011;4991;43.566;27.820;2022-08-21T15:22:08;25.55;;;7.93;;
9904;SDS011;4991;43.566;27.820;2022-08-21T15:24:34;10.55;;;7.22;;
9904;SDS011;4991;43.566;27.820;2022-08-21T15:27:00;11.68;;;7.65;;
9904;SDS011;4991;43.566;27.820;2022-08-21T15:29:29;10.85;;;6.65;;
9904;SDS011;4991;43.566;27.820;2022-08-21T15:31:57;11.82;;;9.20;;
9904;SDS011;4991;43.566;27.820;2022-08-21T15:34:25;8.15;;;7.10;;
9904;SDS011;4991;43.566;27.820;2022-08-21T15:36:54;11.35;;;6.97;;
9904;SDS011;4991;43.566;27.820;2022-08-21T15:39:20;10.18;;;7.60;;
9904;SDS011;4991;43.566;27.820;2022-08-21T15:41:47;9.50;;;7.68;;
9904;SDS011;4991;43.566;27.820;2022-08-21T15:44:12;9.00;;;7.15;;
9904;SDS011;4991;43.566;27.820;2022-08-21T15:46:39;8.98;;;7.35;;
9904;SDS011;4991;43.566;27.820;2022-08-21T15:49:05;11.77;;;7.75;;
9904;SDS011;4991;43.566;27.820;2022-08-21T15:51:31;13.43;;;7.97;;
9904;SDS011;4991;43.566;27.820;2022-08-21T15:53:58;8.93;;;7.68;;
9904;SDS011;4991;43.566;27.820;2022-08-21T15:56:26;8.60;;;7.63;;
9904;SDS011;4991;43.566;27.820;2022-08-21T15:58:58;12.30;;;8.45;;
9904;SDS011;4991;43.566;27.820;2022-08-21T16:01:26;9.02;;;7.70;;
9904;SDS011;4991;43.566;27.820;2022-08-21T16:03:53;12.20;;;8.38;;
9904;SDS011;4991;43.566;27.820;2022-08-21T16:06:20;13.00;;;8.57;;
9904;SDS011;4991;43.566;27.820;2022-08-21T16:08:46;11.38;;;8.45;;
9904;SDS011;4991;43.566;27.820;2022-08-21T16:11:12;8.27;;;7.47;;
9904;SDS011;4991;43.566;27.820;2022-08-21T16:13:40;11.70;;;8.27;;
9904;SDS011;4991;43.566;27.820;2022-08-21T16:16:11;12.85;;;9.02;;
9904;SDS011;4991;43.566;27.820;2022-08-21T16:18:40;12.70;;;9.07;;
9904;SDS011;4991;43.566;27.820;2022-08-21T16:21:06;12.70;;;8.57;;
9904;SDS011;4991;43.566;27.820;2022-08-21T16:23:32;12.52;;;8.73;;
9904;SDS011;4991;43.566;27.820;2022-08-21T16:26:00;12.18;;;7.63;;
9904;SDS011;4991;43.566;27.820;2022-08-21T16:28:28;12.20;;;9.43;;
9904;SDS011;4991;43.566;27.820;2022-08-21T16:30:56;9.93;;;8.68;;
9904;SDS011;4991;43.566;27.820;2022-08-21T16:33:29;9.77;;;8.77;;